Alice International Airport
KALI : now visible

Airfield :











YOU CAN JOIN US ON...

 
LOGIN :

Register | Disclaimer

   EN    FR    IT 

 









Legend :    VFR   Marginal VFR   IFR   Intensive IFR   Very Intensive IFR
Visi :
Ceiling :
>= 8 km
>= 3000ft
5 to 8 km
1000 to 3000 ft
1500m to 5 km
500 to 1000 ft
800 to 1500m
200 to 500 ft
< 800m
< 200 ft
Symbols :   Thunderstorms  Fog  Heavy snow  Heavy precipitations  Wind > 20 kt






- Airport Elevation : 178 ft


KALI - Alice International

CURRENT METAR :
  • 190153Z AUTO 15007KT 10SM CLR 18/16 A2992 RMK AO2 SLP131 T01780156

EXPIRED METARs :
  • 190053Z AUTO 14010KT 10SM CLR 19/16 A2991 RMK AO2 SLP125 T01940161
  • 182353Z AUTO 12005KT 10SM CLR 21/13 A2989 RMK AO2 SLP120 T02060133 10267 20206 53004

TAF KALI
Valid from the 19 at 00:00 until the 20 at 00:00 UTC


182320Z 1900/1924 14005KT P6SM SKC
FM190600 VRB04KT 3SM BR SKC
TEMPO 1906/1909 1SM BR
FM190900 VRB03KT 1/2SM FG SCT004
TEMPO 1909/1913 1/4SM FG VV004
FM191400 16004KT 3SM BR SCT009
FM191600 14009KT P6SM SCT025



MET'MAP, your aeronautical weather chart ! - Copyright ORBIFLY December 2007 - Disclaimer

ORBIFLY MET'MAP TEAM :

Programming & Development : Alexandra Zaïnal
Concept & Development : Baudouin d'Aumeries
Co-Development & Prog : Marc-Olivier Méhu
Technical & hardware support : Manuel Goepfert

Contact : metmap@orbifly.com




SOURCES & CREDITS :

   NOAA       Earth
Advisory